Accueil
METAR-TAF:

METAR-TAF

Aéroports :

Base aérienne Hoedspruit

Hoedspruit, Afrique du Sud

latitude: 24-21-17S, longitude: 31-03-01E, altitude: 531 m

Observation

Le bulletin a été fait il y a 1 heure et 1 minutes, à 08:00 UTC
Vent 13 kt de sud
Température 22°C
Humidité 53%
Pression 1025 hPa

METAR: FAHS 300800Z AUTO 19013KT //// // ////// 22/12 Q1025

Heure: 11:01 (09:01 UTC)

Prévision

Le bulletin a été fait il y a 3 heures et 1 minutes, à 06:00 UTC
Prévision valable du 30 à 07 UTC au 30 à 18 UTC
Vent 12 kt de sud
Visibilité 10 km ou plus
pas de nuages en-dessous de 1500 mètres et pas de cumulonimbus.
Evoluant progressivement
du 30 à 11 UTC au 30 à 13 UTC
Vent 8 kt de est/sud-est

TAF: FAHS 300600Z 3007/3018 17012KT CAVOK TX27/3013Z TN22/3018Z BECMG 3011/3013 11008KT

Observations et prévisions météorologiques de plus de 4000 aéroports (messages METAR et TAF).

Les stations disponibles sont représentées par des disques jaunes et rouges sur la carte.

Passer la souris dessus pour voir le nom de la station.

Cliquer dessus pour voir les observations et prévisions météorologiques.

Pour changer de carte: cliquez sur les boutons verts avec une croix noire pour zoomer, sur le bouton vert avec un tiret pour effectuer un zoom arrière, ou sur les flèches vertes pour les cartes adjacentes.


METAR-TAF: